sensor_id;sensor_type;location;lat;lon;timestamp;pressure;altitude;pressure_sealevel;temperature;humidity
49341;BME280;35209;51.050;13.678;2023-02-04T00:04:17;100310.28;;;3.49;100.00
49341;BME280;35209;51.050;13.678;2023-02-04T00:09:18;100322.44;;;3.46;100.00
49341;BME280;35209;51.050;13.678;2023-02-04T00:14:20;100341.44;;;3.26;100.00
49341;BME280;35209;51.050;13.678;2023-02-04T00:19:22;100350.91;;;3.12;100.00
49341;BME280;35209;51.050;13.678;2023-02-04T00:24:23;100363.03;;;3.07;100.00
49341;BME280;35209;51.050;13.678;2023-02-04T00:29:25;100385.47;;;2.94;100.00
49341;BME280;35209;51.050;13.678;2023-02-04T00:34:27;100400.16;;;2.89;100.00
49341;BME280;35209;51.050;13.678;2023-02-04T00:39:29;100445.97;;;2.83;100.00
49341;BME280;35209;51.050;13.678;2023-02-04T00:44:30;100462.31;;;2.62;100.00
49341;BME280;35209;51.050;13.678;2023-02-04T00:49:33;100457.81;;;2.42;98.20
49341;BME280;35209;51.050;13.678;2023-02-04T00:54:35;100479.41;;;2.35;99.50
49341;BME280;35209;51.050;13.678;2023-02-04T00:59:37;100492.34;;;2.34;99.80
49341;BME280;35209;51.050;13.678;2023-02-04T01:04:38;100532.94;;;2.27;99.95
49341;BME280;35209;51.050;13.678;2023-02-04T01:09:40;100533.75;;;2.24;100.00
49341;BME280;35209;51.050;13.678;2023-02-04T01:14:42;100554.59;;;2.31;100.00
49341;BME280;35209;51.050;13.678;2023-02-04T01:19:44;100562.31;;;2.27;99.92
49341;BME280;35209;51.050;13.678;2023-02-04T01:24:46;100571.94;;;2.35;98.40
49341;BME280;35209;51.050;13.678;2023-02-04T01:30:08;100595.28;;;2.35;97.81
49341;BME280;35209;51.050;13.678;2023-02-04T01:35:11;100602.16;;;2.33;97.93
49341;BME280;35209;51.050;13.678;2023-02-04T01:40:13;100608.19;;;2.32;97.98
49341;BME280;35209;51.050;13.678;2023-02-04T01:45:15;100649.59;;;2.22;100.00
49341;BME280;35209;51.050;13.678;2023-02-04T01:50:17;100658.97;;;2.10;100.00
49341;BME280;35209;51.050;13.678;2023-02-04T01:55:21;100677.00;;;2.02;100.00
49341;BME280;35209;51.050;13.678;2023-02-04T02:00:30;100696.88;;;2.01;100.00
49341;BME280;35209;51.050;13.678;2023-02-04T02:05:39;100703.03;;;2.08;100.00
49341;BME280;35209;51.050;13.678;2023-02-04T02:10:43;100714.91;;;1.92;100.00
49341;BME280;35209;51.050;13.678;2023-02-04T02:15:46;100726.25;;;2.02;96.76
49341;BME280;35209;51.050;13.678;2023-02-04T02:20:48;100759.09;;;2.01;95.85
49341;BME280;35209;51.050;13.678;2023-02-04T02:25:50;100759.28;;;2.14;94.97
49341;BME280;35209;51.050;13.678;2023-02-04T02:30:52;100779.97;;;2.09;96.06
49341;BME280;35209;51.050;13.678;2023-02-04T02:35:54;100792.03;;;2.06;95.68
49341;BME280;35209;51.050;13.678;2023-02-04T02:40:58;100823.06;;;1.99;96.63
49341;BME280;35209;51.050;13.678;2023-02-04T02:46:00;100833.22;;;1.87;99.12
49341;BME280;35209;51.050;13.678;2023-02-04T02:51:02;100838.13;;;1.72;99.13
49341;BME280;35209;51.050;13.678;2023-02-04T02:56:05;100858.69;;;1.61;99.90
49341;BME280;35209;51.050;13.678;2023-02-04T03:01:12;100866.38;;;1.55;96.99
49341;BME280;35209;51.050;13.678;2023-02-04T03:06:18;100884.28;;;1.44;97.64
49341;BME280;35209;51.050;13.678;2023-02-04T03:11:22;100896.47;;;1.48;96.56
49341;BME280;35209;51.050;13.678;2023-02-04T03:16:28;100907.63;;;1.44;96.72
49341;BME280;35209;51.050;13.678;2023-02-04T03:21:31;100914.59;;;1.47;99.20
49341;BME280;35209;51.050;13.678;2023-02-04T03:26:33;100934.72;;;1.63;100.00
49341;BME280;35209;51.050;13.678;2023-02-04T03:31:35;100946.44;;;1.43;100.00
49341;BME280;35209;51.050;13.678;2023-02-04T03:36:38;100960.88;;;1.32;100.00
49341;BME280;35209;51.050;13.678;2023-02-04T03:41:40;100986.78;;;1.30;100.00
49341;BME280;35209;51.050;13.678;2023-02-04T03:46:41;101003.88;;;1.23;100.00
49341;BME280;35209;51.050;13.678;2023-02-04T03:51:43;101032.22;;;1.16;100.00
49341;BME280;35209;51.050;13.678;2023-02-04T03:56:45;101055.56;;;1.17;100.00
49341;BME280;35209;51.050;13.678;2023-02-04T04:01:47;101083.72;;;1.04;100.00
49341;BME280;35209;51.050;13.678;2023-02-04T04:06:48;101099.59;;;1.19;100.00
49341;BME280;35209;51.050;13.678;2023-02-04T04:11:50;101121.59;;;1.00;100.00
49341;BME280;35209;51.050;13.678;2023-02-04T04:16:52;101136.78;;;0.85;100.00
49341;BME280;35209;51.050;13.678;2023-02-04T04:21:53;101156.63;;;0.86;99.00
49341;BME280;35209;51.050;13.678;2023-02-04T04:26:55;101160.94;;;0.85;99.48
49341;BME280;35209;51.050;13.678;2023-02-04T04:31:57;101171.31;;;0.87;100.00
49341;BME280;35209;51.050;13.678;2023-02-04T04:36:59;101174.84;;;0.89;100.00
49341;BME280;35209;51.050;13.678;2023-02-04T04:42:00;101190.63;;;0.99;100.00
49341;BME280;35209;51.050;13.678;2023-02-04T04:47:02;101210.97;;;0.84;100.00
49341;BME280;35209;51.050;13.678;2023-02-04T04:52:04;101212.88;;;0.93;100.00
49341;BME280;35209;51.050;13.678;2023-02-04T04:57:06;101241.44;;;0.94;100.00
49341;BME280;35209;51.050;13.678;2023-02-04T05:02:07;101251.09;;;0.70;100.00
49341;BME280;35209;51.050;13.678;2023-02-04T05:07:09;101257.13;;;0.69;100.00
49341;BME280;35209;51.050;13.678;2023-02-04T05:12:11;101277.91;;;0.72;100.00
49341;BME280;35209;51.050;13.678;2023-02-04T05:17:12;101278.69;;;0.69;100.00
49341;BME280;35209;51.050;13.678;2023-02-04T05:22:14;101285.50;;;0.66;99.42
49341;BME280;35209;51.050;13.678;2023-02-04T05:27:16;101280.78;;;0.53;99.21
49341;BME280;35209;51.050;13.678;2023-02-04T05:32:18;101306.81;;;0.57;98.05
49341;BME280;35209;51.050;13.678;2023-02-04T05:37:20;101320.94;;;0.40;97.62
49341;BME280;35209;51.050;13.678;2023-02-04T05:42:21;101336.66;;;0.46;97.19
49341;BME280;35209;51.050;13.678;2023-02-04T05:47:23;101343.56;;;0.45;96.82
49341;BME280;35209;51.050;13.678;2023-02-04T05:52:25;101358.94;;;0.41;96.63
49341;BME280;35209;51.050;13.678;2023-02-04T05:57:27;101361.19;;;0.30;95.92
49341;BME280;35209;51.050;13.678;2023-02-04T06:02:28;101380.75;;;0.22;96.54
49341;BME280;35209;51.050;13.678;2023-02-04T06:07:30;101385.09;;;0.23;95.46
49341;BME280;35209;51.050;13.678;2023-02-04T06:12:32;101390.72;;;0.10;96.02
49341;BME280;35209;51.050;13.678;2023-02-04T06:17:34;101412.88;;;0.03;97.26
49341;BME280;35209;51.050;13.678;2023-02-04T06:22:35;101434.53;;;0.05;96.24
49341;BME280;35209;51.050;13.678;2023-02-04T06:32:59;101456.53;;;-0.06;97.20
49341;BME280;35209;51.050;13.678;2023-02-04T06:38:01;101466.16;;;-0.02;96.27
49341;BME280;35209;51.050;13.678;2023-02-04T06:43:02;101487.19;;;-0.17;97.86
49341;BME280;35209;51.050;13.678;2023-02-04T06:48:05;101496.66;;;-0.17;98.34
49341;BME280;35209;51.050;13.678;2023-02-04T06:53:06;101507.16;;;-0.13;98.14
49341;BME280;35209;51.050;13.678;2023-02-04T06:58:08;101508.03;;;-0.12;98.08
49341;BME280;35209;51.050;13.678;2023-02-04T07:03:10;101528.94;;;-0.05;97.69
49341;BME280;35209;51.050;13.678;2023-02-04T07:08:12;101547.94;;;-0.28;99.66
49341;BME280;35209;51.050;13.678;2023-02-04T07:13:13;101544.69;;;-0.22;100.00
49341;BME280;35209;51.050;13.678;2023-02-04T07:18:15;101549.63;;;-0.05;99.14
49341;BME280;35209;51.050;13.678;2023-02-04T07:23:18;101549.31;;;-0.14;100.00
49341;BME280;35209;51.050;13.678;2023-02-04T07:28:20;101555.69;;;-0.28;100.00
49341;BME280;35209;51.050;13.678;2023-02-04T07:33:22;101562.22;;;-0.14;100.00
49341;BME280;35209;51.050;13.678;2023-02-04T07:38:24;101562.84;;;-0.21;100.00
49341;BME280;35209;51.050;13.678;2023-02-04T07:43:26;101572.41;;;-0.18;100.00
49341;BME280;35209;51.050;13.678;2023-02-04T07:48:29;101584.94;;;-0.05;100.00
49341;BME280;35209;51.050;13.678;2023-02-04T07:53:30;101600.28;;;-0.10;100.00
49341;BME280;35209;51.050;13.678;2023-02-04T07:58:32;101604.00;;;-0.03;100.00
49341;BME280;35209;51.050;13.678;2023-02-04T08:03:34;101610.25;;;0.04;100.00
49341;BME280;35209;51.050;13.678;2023-02-04T08:08:37;101620.75;;;0.08;100.00
49341;BME280;35209;51.050;13.678;2023-02-04T08:13:39;101627.97;;;0.17;100.00
49341;BME280;35209;51.050;13.678;2023-02-04T08:18:41;101645.25;;;0.18;100.00
49341;BME280;35209;51.050;13.678;2023-02-04T08:23:42;101641.00;;;0.20;100.00
49341;BME280;35209;51.050;13.678;2023-02-04T08:28:44;101655.94;;;0.27;100.00
49341;BME280;35209;51.050;13.678;2023-02-04T08:33:46;101669.91;;;0.32;100.00
49341;BME280;35209;51.050;13.678;2023-02-04T08:38:48;101678.44;;;0.30;100.00
49341;BME280;35209;51.050;13.678;2023-02-04T08:43:50;101687.19;;;0.33;100.00
49341;BME280;35209;51.050;13.678;2023-02-04T08:48:51;101700.38;;;0.65;100.00
49341;BME280;35209;51.050;13.678;2023-02-04T08:53:53;101702.53;;;0.77;100.00
49341;BME280;35209;51.050;13.678;2023-02-04T08:58:55;101709.34;;;0.74;99.80
49341;BME280;35209;51.050;13.678;2023-02-04T09:03:56;101715.34;;;0.73;100.00
49341;BME280;35209;51.050;13.678;2023-02-04T09:08:58;101713.25;;;0.87;99.84
49341;BME280;35209;51.050;13.678;2023-02-04T09:14:00;101728.09;;;0.93;100.00
49341;BME280;35209;51.050;13.678;2023-02-04T09:19:02;101732.88;;;1.06;98.56
49341;BME280;35209;51.050;13.678;2023-02-04T09:24:03;101732.81;;;1.05;99.67
49341;BME280;35209;51.050;13.678;2023-02-04T09:29:05;101741.22;;;1.23;99.07
49341;BME280;35209;51.050;13.678;2023-02-04T09:34:07;101749.03;;;0.99;98.05
49341;BME280;35209;51.050;13.678;2023-02-04T09:39:09;101765.41;;;1.23;97.88
49341;BME280;35209;51.050;13.678;2023-02-04T09:44:15;101764.84;;;1.32;97.27
49341;BME280;35209;51.050;13.678;2023-02-04T09:49:18;101766.72;;;1.63;96.88
49341;BME280;35209;51.050;13.678;2023-02-04T09:54:21;101781.75;;;1.73;95.70
49341;BME280;35209;51.050;13.678;2023-02-04T09:59:26;101794.22;;;1.58;95.22
49341;BME280;35209;51.050;13.678;2023-02-04T10:04:29;101793.84;;;1.73;96.15
49341;BME280;35209;51.050;13.678;2023-02-04T10:09:31;101792.41;;;1.83;95.50
49341;BME280;35209;51.050;13.678;2023-02-04T10:14:32;101798.13;;;1.72;95.13
49341;BME280;35209;51.050;13.678;2023-02-04T10:19:34;101806.53;;;1.91;93.75
49341;BME280;35209;51.050;13.678;2023-02-04T10:24:36;101811.72;;;2.19;93.82
49341;BME280;35209;51.050;13.678;2023-02-04T10:29:39;101812.06;;;2.03;93.13
49341;BME280;35209;51.050;13.678;2023-02-04T10:34:42;101814.41;;;2.22;94.37
49341;BME280;35209;51.050;13.678;2023-02-04T10:39:45;101806.38;;;2.43;91.12
49341;BME280;35209;51.050;13.678;2023-02-04T10:44:47;101806.25;;;2.69;89.40
49341;BME280;35209;51.050;13.678;2023-02-04T10:49:59;101811.50;;;2.40;91.51
49341;BME280;35209;51.050;13.678;2023-02-04T10:55:06;101813.22;;;2.40;89.89
49341;BME280;35209;51.050;13.678;2023-02-04T11:00:26;101818.91;;;2.28;91.87
49341;BME280;35209;51.050;13.678;2023-02-04T11:05:31;101809.88;;;2.44;90.40
49341;BME280;35209;51.050;13.678;2023-02-04T11:10:33;101811.88;;;2.52;91.47
49341;BME280;35209;51.050;13.678;2023-02-04T11:15:46;101821.16;;;2.44;88.13
49341;BME280;35209;51.050;13.678;2023-02-04T11:20:54;101827.22;;;2.45;87.52
49341;BME280;35209;51.050;13.678;2023-02-04T11:26:06;101832.50;;;3.10;85.08
49341;BME280;35209;51.050;13.678;2023-02-04T11:36:23;101831.34;;;4.76;77.66
49341;BME280;35209;51.050;13.678;2023-02-04T11:41:29;101830.44;;;3.63;76.90
49341;BME280;35209;51.050;13.678;2023-02-04T11:46:31;101839.09;;;3.96;80.27
49341;BME280;35209;51.050;13.678;2023-02-04T11:51:33;101842.81;;;3.71;79.68
49341;BME280;35209;51.050;13.678;2023-02-04T11:56:35;101852.13;;;3.30;80.30
49341;BME280;35209;51.050;13.678;2023-02-04T12:01:37;101849.25;;;3.86;78.12
49341;BME280;35209;51.050;13.678;2023-02-04T12:06:39;101850.56;;;3.68;77.53
49341;BME280;35209;51.050;13.678;2023-02-04T12:11:54;101858.69;;;3.16;79.89
49341;BME280;35209;51.050;13.678;2023-02-04T12:16:56;101862.63;;;3.33;80.08
49341;BME280;35209;51.050;13.678;2023-02-04T12:21:58;101866.81;;;3.28;79.82
49341;BME280;35209;51.050;13.678;2023-02-04T12:26:59;101870.91;;;2.88;81.08
49341;BME280;35209;51.050;13.678;2023-02-04T12:32:01;101874.41;;;2.90;81.04
49341;BME280;35209;51.050;13.678;2023-02-04T12:37:03;101873.31;;;2.82;81.71
49341;BME280;35209;51.050;13.678;2023-02-04T12:42:05;101867.25;;;2.83;81.29
49341;BME280;35209;51.050;13.678;2023-02-04T12:47:06;101864.38;;;3.02;77.25
49341;BME280;35209;51.050;13.678;2023-02-04T12:52:08;101857.72;;;2.82;78.56
49341;BME280;35209;51.050;13.678;2023-02-04T12:57:10;101854.50;;;2.91;75.44
49341;BME280;35209;51.050;13.678;2023-02-04T13:02:12;101873.94;;;3.03;74.87
49341;BME280;35209;51.050;13.678;2023-02-04T13:07:14;101871.69;;;2.86;75.25
49341;BME280;35209;51.050;13.678;2023-02-04T13:12:16;101879.81;;;2.68;76.11
49341;BME280;35209;51.050;13.678;2023-02-04T13:17:17;101878.63;;;2.87;76.01
49341;BME280;35209;51.050;13.678;2023-02-04T13:22:19;101878.50;;;2.82;74.60
49341;BME280;35209;51.050;13.678;2023-02-04T13:27:21;101876.88;;;2.86;75.39
49341;BME280;35209;51.050;13.678;2023-02-04T13:32:22;101879.97;;;2.74;74.50
49341;BME280;35209;51.050;13.678;2023-02-04T13:37:24;101886.63;;;2.64;72.66
49341;BME280;35209;51.050;13.678;2023-02-04T13:42:26;101891.69;;;2.60;71.41
49341;BME280;35209;51.050;13.678;2023-02-04T13:47:28;101888.78;;;2.49;72.47
49341;BME280;35209;51.050;13.678;2023-02-04T13:52:30;101901.88;;;2.53;73.28
49341;BME280;35209;51.050;13.678;2023-02-04T13:57:31;101891.78;;;2.63;74.28
49341;BME280;35209;51.050;13.678;2023-02-04T14:02:33;101902.72;;;2.52;73.29
49341;BME280;35209;51.050;13.678;2023-02-04T14:07:35;101898.69;;;2.62;74.23
49341;BME280;35209;51.050;13.678;2023-02-04T14:12:37;101901.22;;;2.61;74.40
49341;BME280;35209;51.050;13.678;2023-02-04T14:17:38;101898.91;;;2.70;73.35
49341;BME280;35209;51.050;13.678;2023-02-04T14:22:40;101904.78;;;2.64;73.29
49341;BME280;35209;51.050;13.678;2023-02-04T14:27:42;101908.34;;;2.66;73.39
49341;BME280;35209;51.050;13.678;2023-02-04T14:32:43;101912.66;;;2.66;74.45
49341;BME280;35209;51.050;13.678;2023-02-04T14:37:45;101910.34;;;2.75;75.08
49341;BME280;35209;51.050;13.678;2023-02-04T14:42:47;101907.50;;;2.67;74.91
49341;BME280;35209;51.050;13.678;2023-02-04T14:47:49;101907.34;;;2.63;75.82
49341;BME280;35209;51.050;13.678;2023-02-04T14:52:53;101899.25;;;2.81;73.95
49341;BME280;35209;51.050;13.678;2023-02-04T14:57:57;101903.16;;;2.96;72.66
49341;BME280;35209;51.050;13.678;2023-02-04T15:02:58;101897.13;;;2.97;68.42
49341;BME280;35209;51.050;13.678;2023-02-04T15:08:00;101905.78;;;2.68;68.65
49341;BME280;35209;51.050;13.678;2023-02-04T15:13:02;101906.09;;;2.50;67.26
49341;BME280;35209;51.050;13.678;2023-02-04T15:18:04;101898.06;;;2.42;67.76
49341;BME280;35209;51.050;13.678;2023-02-04T15:23:05;101893.13;;;2.50;68.35
49341;BME280;35209;51.050;13.678;2023-02-04T15:28:07;101898.78;;;2.38;69.40
49341;BME280;35209;51.050;13.678;2023-02-04T15:33:12;101899.50;;;2.33;70.64
49341;BME280;35209;51.050;13.678;2023-02-04T15:38:14;101910.47;;;1.98;71.38
49341;BME280;35209;51.050;13.678;2023-02-04T15:43:16;101917.47;;;1.99;72.40
49341;BME280;35209;51.050;13.678;2023-02-04T15:48:17;101906.41;;;1.80;73.54
49341;BME280;35209;51.050;13.678;2023-02-04T15:53:20;101913.88;;;1.70;74.32
49341;BME280;35209;51.050;13.678;2023-02-04T15:58:23;101923.09;;;1.62;74.69
49341;BME280;35209;51.050;13.678;2023-02-04T16:03:25;101929.25;;;1.66;74.58
49341;BME280;35209;51.050;13.678;2023-02-04T16:08:27;101937.63;;;1.59;74.90
49341;BME280;35209;51.050;13.678;2023-02-04T16:13:28;101939.38;;;1.34;75.86
49341;BME280;35209;51.050;13.678;2023-02-04T16:18:30;101944.44;;;1.31;75.03
49341;BME280;35209;51.050;13.678;2023-02-04T16:23:32;101940.34;;;1.14;75.55
49341;BME280;35209;51.050;13.678;2023-02-04T16:28:33;101956.00;;;1.17;75.08
49341;BME280;35209;51.050;13.678;2023-02-04T16:33:35;101950.97;;;0.97;76.08
49341;BME280;35209;51.050;13.678;2023-02-04T16:38:37;101962.97;;;0.95;77.19
49341;BME280;35209;51.050;13.678;2023-02-04T16:43:45;101970.50;;;1.12;75.91
49341;BME280;35209;51.050;13.678;2023-02-04T16:48:47;101963.72;;;0.93;76.67
49341;BME280;35209;51.050;13.678;2023-02-04T16:53:48;101975.25;;;0.79;77.81
49341;BME280;35209;51.050;13.678;2023-02-04T16:58:50;101981.66;;;0.66;78.37
49341;BME280;35209;51.050;13.678;2023-02-04T17:03:52;101986.38;;;0.76;77.57
49341;BME280;35209;51.050;13.678;2023-02-04T17:08:58;101985.44;;;0.53;77.98
49341;BME280;35209;51.050;13.678;2023-02-04T17:14:02;101984.56;;;0.53;78.22
49341;BME280;35209;51.050;13.678;2023-02-04T17:19:04;101992.41;;;0.54;78.49
49341;BME280;35209;51.050;13.678;2023-02-04T17:24:06;102001.63;;;0.47;78.92
49341;BME280;35209;51.050;13.678;2023-02-04T17:29:11;102005.03;;;0.46;78.46
49341;BME280;35209;51.050;13.678;2023-02-04T17:34:13;102009.78;;;0.36;79.26
49341;BME280;35209;51.050;13.678;2023-02-04T17:39:15;102006.56;;;0.41;79.38
49341;BME280;35209;51.050;13.678;2023-02-04T17:44:17;102002.72;;;0.32;80.06
49341;BME280;35209;51.050;13.678;2023-02-04T17:49:20;102001.59;;;0.27;79.86
49341;BME280;35209;51.050;13.678;2023-02-04T17:54:22;102006.69;;;0.23;79.68
49341;BME280;35209;51.050;13.678;2023-02-04T17:59:24;102006.00;;;0.28;79.37
49341;BME280;35209;51.050;13.678;2023-02-04T18:04:26;102002.25;;;0.42;78.90
49341;BME280;35209;51.050;13.678;2023-02-04T18:09:28;102004.97;;;0.24;78.52
49341;BME280;35209;51.050;13.678;2023-02-04T18:14:30;102008.75;;;0.32;78.59
49341;BME280;35209;51.050;13.678;2023-02-04T18:19:33;102015.94;;;0.18;79.27
49341;BME280;35209;51.050;13.678;2023-02-04T18:24:41;102018.22;;;0.11;80.30
49341;BME280;35209;51.050;13.678;2023-02-04T18:29:48;102018.94;;;0.08;79.84
49341;BME280;35209;51.050;13.678;2023-02-04T18:34:54;102007.19;;;0.15;80.32
49341;BME280;35209;51.050;13.678;2023-02-04T18:45:25;102015.50;;;0.29;79.60
49341;BME280;35209;51.050;13.678;2023-02-04T18:50:32;102009.19;;;0.22;80.50
49341;BME280;35209;51.050;13.678;2023-02-04T18:55:35;102012.69;;;0.03;81.39
49341;BME280;35209;51.050;13.678;2023-02-04T19:00:37;102003.38;;;0.07;80.75
49341;BME280;35209;51.050;13.678;2023-02-04T19:05:47;102003.38;;;0.07;79.56
49341;BME280;35209;51.050;13.678;2023-02-04T19:10:51;101994.69;;;0.05;80.04
49341;BME280;35209;51.050;13.678;2023-02-04T19:15:56;102013.72;;;0.07;81.15
49341;BME280;35209;51.050;13.678;2023-02-04T19:31:35;102025.09;;;-0.09;82.41
49341;BME280;35209;51.050;13.678;2023-02-04T19:36:37;102028.59;;;-0.09;82.66
49341;BME280;35209;51.050;13.678;2023-02-04T19:41:45;102033.97;;;-0.04;82.34
49341;BME280;35209;51.050;13.678;2023-02-04T19:46:48;102038.75;;;0.08;81.82
49341;BME280;35209;51.050;13.678;2023-02-04T19:51:52;102041.50;;;-0.09;82.12
49341;BME280;35209;51.050;13.678;2023-02-04T19:56:54;102043.19;;;0.10;81.47
49341;BME280;35209;51.050;13.678;2023-02-04T20:07:27;102065.09;;;-0.01;82.71
49341;BME280;35209;51.050;13.678;2023-02-04T20:12:31;102063.69;;;0.06;82.50
49341;BME280;35209;51.050;13.678;2023-02-04T20:17:45;102069.28;;;0.16;81.39
49341;BME280;35209;51.050;13.678;2023-02-04T20:27:54;102088.16;;;0.14;80.38
49341;BME280;35209;51.050;13.678;2023-02-04T20:38:20;102099.88;;;0.06;79.61
49341;BME280;35209;51.050;13.678;2023-02-04T20:43:22;102116.00;;;0.00;80.01
49341;BME280;35209;51.050;13.678;2023-02-04T20:48:30;102117.47;;;-0.24;81.37
49341;BME280;35209;51.050;13.678;2023-02-04T20:58:44;102135.63;;;-0.23;81.52
49341;BME280;35209;51.050;13.678;2023-02-04T21:03:46;102140.31;;;-0.34;82.13
49341;BME280;35209;51.050;13.678;2023-02-04T21:08:52;102153.53;;;-0.45;82.14
49341;BME280;35209;51.050;13.678;2023-02-04T21:13:55;102163.38;;;-0.38;82.95
49341;BME280;35209;51.050;13.678;2023-02-04T21:18:57;102163.28;;;-0.58;83.40
49341;BME280;35209;51.050;13.678;2023-02-04T21:23:59;102155.47;;;-0.41;80.84
49341;BME280;35209;51.050;13.678;2023-02-04T21:29:01;102173.53;;;-0.41;78.85
49341;BME280;35209;51.050;13.678;2023-02-04T21:34:04;102173.53;;;-0.41;77.47
49341;BME280;35209;51.050;13.678;2023-02-04T21:39:06;102177.34;;;-0.53;76.51
49341;BME280;35209;51.050;13.678;2023-02-04T21:44:08;102172.97;;;-0.71;77.90
49341;BME280;35209;51.050;13.678;2023-02-04T21:49:10;102167.69;;;-0.74;76.93
49341;BME280;35209;51.050;13.678;2023-02-04T21:54:12;102165.97;;;-0.74;74.88
49341;BME280;35209;51.050;13.678;2023-02-04T21:59:14;102165.44;;;-0.85;74.56
49341;BME280;35209;51.050;13.678;2023-02-04T22:04:19;102156.97;;;-0.82;71.80
49341;BME280;35209;51.050;13.678;2023-02-04T22:09:20;102161.53;;;-0.94;73.04
49341;BME280;35209;51.050;13.678;2023-02-04T22:14:22;102167.94;;;-1.04;73.82
49341;BME280;35209;51.050;13.678;2023-02-04T22:19:24;102181.75;;;-1.20;74.49
49341;BME280;35209;51.050;13.678;2023-02-04T22:24:26;102182.97;;;-1.13;73.85
49341;BME280;35209;51.050;13.678;2023-02-04T22:29:28;102194.59;;;-1.21;74.09
49341;BME280;35209;51.050;13.678;2023-02-04T22:34:32;102192.44;;;-1.30;73.57
49341;BME280;35209;51.050;13.678;2023-02-04T22:39:34;102192.03;;;-1.38;74.29
49341;BME280;35209;51.050;13.678;2023-02-04T22:44:35;102193.91;;;-1.35;74.65
49341;BME280;35209;51.050;13.678;2023-02-04T22:49:37;102183.41;;;-1.38;74.85
49341;BME280;35209;51.050;13.678;2023-02-04T22:54:39;102191.63;;;-1.29;73.61
49341;BME280;35209;51.050;13.678;2023-02-04T22:59:43;102191.31;;;-1.35;73.25
49341;BME280;35209;51.050;13.678;2023-02-04T23:04:45;102190.78;;;-1.62;75.64
49341;BME280;35209;51.050;13.678;2023-02-04T23:09:47;102185.28;;;-1.68;75.96
49341;BME280;35209;51.050;13.678;2023-02-04T23:14:49;102187.06;;;-1.51;74.77
49341;BME280;35209;51.050;13.678;2023-02-04T23:19:51;102187.34;;;-1.63;74.81
49341;BME280;35209;51.050;13.678;2023-02-04T23:24:53;102198.03;;;-1.55;75.36
49341;BME280;35209;51.050;13.678;2023-02-04T23:29:54;102197.53;;;-1.64;75.90
49341;BME280;35209;51.050;13.678;2023-02-04T23:34:56;102204.91;;;-1.72;75.24
49341;BME280;35209;51.050;13.678;2023-02-04T23:39:58;102216.19;;;-1.54;74.11
49341;BME280;35209;51.050;13.678;2023-02-04T23:45:00;102214.09;;;-1.77;75.46
49341;BME280;35209;51.050;13.678;2023-02-04T23:50:02;102212.38;;;-1.93;76.21
49341;BME280;35209;51.050;13.678;2023-02-04T23:55:04;102203.59;;;-1.80;76.18
